Terminal Aerodrome Forecast
Issued by NWS

Home | Current Version | Previous Version | Text Only | Print | Product List | Glossary On
Versions: 1 2 3 4 5 6 7 8 9 10 11 12 13 14 15 16 17 18
000
FTAK31 PAJN 191100
TAFAKT
TAF
PAKT 191130Z 1912/2012 17007KT P6SM -RA BKN015 OVC025
      TEMPO 1912/1915 5SM -RA BR
     FM192000 15015G25KT 6SM -RA BR BKN025 OVC040 WS020/13035KT
     FM192200 15020G35KT 4SM RA BR BKN020 OVC030 WS020/13040KT
     FM200300 14012G22KT 4SM -RA BR BKN020 OVC040 WS020/13030KT
     FM200900 15020G35KT 5SM -RA BR BKN030 OVC040 WS020/13040KT
      AMD LTD TO CLD VIS AND WIND 1912/1915=

USA.gov is the U.S. government's official web portal to all federal, state and local government web resources and services.